createdAt,value
2017-03-09T00:00:17.145Z,8.29
2017-03-09T00:01:26.123Z,8.38
2017-03-09T00:02:35.127Z,8.3
2017-03-09T00:03:44.101Z,8.36
2017-03-09T00:04:53.186Z,8.15
2017-03-09T00:06:02.244Z,8.28
2017-03-09T00:07:11.239Z,8.36
2017-03-09T00:08:20.732Z,8.38
2017-03-09T00:09:30.141Z,8.41
2017-03-09T00:10:39.153Z,8.37
2017-03-09T00:11:48.201Z,8.26
2017-03-09T00:12:57.176Z,8.19
2017-03-09T00:14:06.164Z,8.04
2017-03-09T00:15:15.140Z,8.08
2017-03-09T00:16:24.116Z,8.15
2017-03-09T00:17:33.150Z,8.29
2017-03-09T00:18:42.131Z,8.19
2017-03-09T00:19:51.125Z,8.29
2017-03-09T00:21:00.107Z,8.3
2017-03-09T00:22:09.076Z,8.3
2017-03-09T00:23:18.184Z,8.29
2017-03-09T00:24:27.178Z,8.36
2017-03-09T00:25:36.576Z,8.34
2017-03-09T00:26:45.553Z,8.38
2017-03-09T00:27:54.550Z,8.44
2017-03-09T00:29:03.618Z,8.41
2017-03-09T00:30:12.605Z,8.43
2017-03-09T00:31:21.671Z,8.41
2017-03-09T00:32:30.662Z,8.41
2017-03-09T00:33:40.072Z,8.37
2017-03-09T00:34:49.053Z,8.4
2017-03-09T00:35:58.057Z,8.29
2017-03-09T00:37:07.138Z,8.29
2017-03-09T00:38:16.124Z,8.2
2017-03-09T00:39:25.130Z,8.11
2017-03-09T00:40:34.125Z,8.28
2017-03-09T00:41:43.189Z,8.15
2017-03-09T00:42:52.193Z,8.18
2017-03-09T00:44:01.169Z,8.29
2017-03-09T00:45:10.172Z,8.33
2017-03-09T00:46:19.152Z,8.41
2017-03-09T00:47:28.134Z,8.38
2017-03-09T00:48:37.135Z,8.4
2017-03-09T00:49:46.125Z,8.45
2017-03-09T00:50:55.096Z,8.43
2017-03-09T00:52:04.176Z,8.37
2017-03-09T00:53:13.555Z,8.38
2017-03-09T00:54:22.549Z,8.38
2017-03-09T00:55:31.541Z,8.4
2017-03-09T00:56:40.524Z,8.41
2017-03-09T00:57:49.542Z,8.34
2017-03-09T00:58:58.524Z,8.34
2017-03-09T01:00:07.518Z,8.29
2017-03-09T01:01:16.591Z,8.22
2017-03-09T01:02:25.687Z,8.19
2017-03-09T01:03:34.658Z,8.22
2017-03-09T01:04:43.659Z,8.05
2017-03-09T01:05:52.842Z,8.16
2017-03-09T01:07:01.824Z,8.12
2017-03-09T01:08:10.939Z,8.16
2017-03-09T01:09:19.915Z,8.04
2017-03-09T01:10:28.896Z,8.02
2017-03-09T01:11:37.892Z,8.05
2017-03-09T01:12:46.883Z,7.95
2017-03-09T01:13:55.856Z,7.97
2017-03-09T01:15:04.894Z,8
2017-03-09T01:16:14.274Z,7.93
2017-03-09T01:17:23.261Z,7.95
2017-03-09T01:18:32.327Z,7.89
2017-03-09T01:19:41.493Z,7.9
2017-03-09T01:20:50.492Z,7.9
2017-03-09T01:21:59.476Z,7.92
2017-03-09T01:23:08.456Z,7.9
2017-03-09T01:24:17.435Z,7.92
2017-03-09T01:25:26.507Z,8
2017-03-09T01:26:35.576Z,7.93
2017-03-09T01:27:44.554Z,7.93
2017-03-09T01:28:53.534Z,7.93
2017-03-09T01:30:02.520Z,7.98
2017-03-09T01:31:11.508Z,7.9
2017-03-09T01:32:20.495Z,7.97
2017-03-09T01:33:29.474Z,7.92
2017-03-09T01:34:38.476Z,7.98
2017-03-09T01:35:47.460Z,7.82
2017-03-09T01:36:56.454Z,7.85
2017-03-09T01:38:05.440Z,7.85
2017-03-09T01:39:14.446Z,7.9
2017-03-09T01:40:23.435Z,7.83
2017-03-09T01:41:32.412Z,7.83
2017-03-09T01:42:41.390Z,7.8
2017-03-09T01:43:50.470Z,7.85
2017-03-09T01:44:59.544Z,7.92
2017-03-09T01:46:08.558Z,7.86
2017-03-09T01:47:18.033Z,7.95
2017-03-09T01:48:27.419Z,7.92
2017-03-09T01:49:36.423Z,8.01
2017-03-09T01:50:45.424Z,7.9
2017-03-09T01:51:54.409Z,7.85
2017-03-09T01:53:03.401Z,7.83
2017-03-09T01:54:12.385Z,7.82
2017-03-09T01:55:21.428Z,7.79
2017-03-09T01:56:30.536Z,7.82
2017-03-09T01:57:40.018Z,7.83
2017-03-09T01:58:49.088Z,7.75
2017-03-09T01:59:58.074Z,7.74
2017-03-09T02:01:07.091Z,7.87
2017-03-09T02:02:16.085Z,7.86
2017-03-09T02:03:25.168Z,7.85
2017-03-09T02:04:34.161Z,7.82
2017-03-09T02:05:43.146Z,7.83
2017-03-09T02:06:52.191Z,7.75
2017-03-09T02:08:01.264Z,7.75
2017-03-09T02:09:10.242Z,7.67
2017-03-09T02:10:19.224Z,7.75
2017-03-09T02:11:28.291Z,7.75
2017-03-09T02:12:37.287Z,7.75
2017-03-09T02:13:46.259Z,7.72
2017-03-09T02:14:55.246Z,7.74
2017-03-09T02:16:04.627Z,7.69
2017-03-09T02:17:13.618Z,7.68
2017-03-09T02:18:22.657Z,7.67
2017-03-09T02:19:32.041Z,7.71
2017-03-09T02:20:41.095Z,7.71
2017-03-09T02:21:50.156Z,7.74
2017-03-09T02:22:59.736Z,7.69
2017-03-09T02:24:08.736Z,7.74
2017-03-09T02:25:17.728Z,7.75
2017-03-09T02:26:26.798Z,7.71
2017-03-09T02:27:35.777Z,7.83
2017-03-09T02:28:44.768Z,7.87
2017-03-09T02:29:53.765Z,7.8
2017-03-09T02:31:02.922Z,7.9
2017-03-09T02:32:11.946Z,7.89
2017-03-09T02:33:20.944Z,7.85
2017-03-09T02:34:29.922Z,7.83
2017-03-09T02:35:38.924Z,7.86
2017-03-09T02:36:48.407Z,7.89
2017-03-09T02:37:57.379Z,7.93
2017-03-09T02:39:06.372Z,7.87
2017-03-09T02:40:15.349Z,7.93
2017-03-09T02:41:24.799Z,8
2017-03-09T02:42:33.877Z,7.93
2017-03-09T02:43:42.876Z,7.98
2017-03-09T02:44:51.858Z,8
2017-03-09T02:46:00.834Z,7.98
2017-03-09T02:47:09.810Z,7.95
2017-03-09T02:48:18.796Z,7.93
2017-03-09T02:49:27.788Z,7.95
2017-03-09T02:50:36.785Z,7.93
2017-03-09T02:51:45.780Z,7.95
2017-03-09T02:52:54.767Z,7.9
2017-03-09T02:54:03.747Z,7.93
2017-03-09T02:55:12.725Z,7.95
2017-03-09T02:56:21.725Z,7.9
2017-03-09T02:57:30.708Z,7.92
2017-03-09T02:58:39.684Z,7.9
2017-03-09T02:59:48.670Z,7.93
2017-03-09T03:00:57.655Z,7.97
2017-03-09T03:02:06.650Z,7.92
2017-03-09T03:03:15.741Z,8
2017-03-09T03:04:24.716Z,7.97
2017-03-09T03:05:33.690Z,7.9
2017-03-09T03:06:42.776Z,7.85
2017-03-09T03:07:51.942Z,7.89
2017-03-09T03:09:00.925Z,7.92
2017-03-09T03:10:10.018Z,7.92
2017-03-09T03:11:19.005Z,8
2017-03-09T03:12:28.010Z,7.98
2017-03-09T03:13:37.002Z,7.95
2017-03-09T03:14:46.400Z,7.95
2017-03-09T03:15:55.524Z,8.02
2017-03-09T03:17:04.498Z,8.04
2017-03-09T03:18:13.473Z,8.1
2017-03-09T03:19:22.455Z,8.08
2017-03-09T03:20:31.835Z,8.04
2017-03-09T03:21:40.806Z,8.04
2017-03-09T03:22:49.781Z,8.07
2017-03-09T03:23:58.762Z,8.08
2017-03-09T03:25:07.802Z,8.02
2017-03-09T03:26:16.804Z,7.97
2017-03-09T03:27:25.799Z,8.05
2017-03-09T03:28:34.813Z,7.95
2017-03-09T03:29:43.867Z,8.04
2017-03-09T03:30:52.960Z,8.05
2017-03-09T03:32:02.030Z,7.98
2017-03-09T03:33:11.006Z,8.1
2017-03-09T03:34:20.001Z,8.05
2017-03-09T03:35:29.395Z,8.02
2017-03-09T03:36:38.461Z,7.93
2017-03-09T03:37:47.626Z,8.05
2017-03-09T03:38:56.637Z,7.98
2017-03-09T03:40:05.612Z,8.1
2017-03-09T03:41:14.693Z,8.04
2017-03-09T03:42:23.683Z,8
2017-03-09T03:43:32.673Z,8.05
2017-03-09T03:44:41.669Z,8.07
2017-03-09T03:45:50.666Z,8.04
2017-03-09T03:46:59.648Z,8.1
2017-03-09T03:48:09.479Z,8.08
2017-03-09T03:49:18.462Z,8.07
2017-03-09T03:50:27.616Z,8.1
2017-03-09T03:51:36.590Z,8.2
2017-03-09T03:52:45.561Z,8.05
2017-03-09T03:53:54.643Z,8.11
2017-03-09T03:55:03.642Z,8.18
2017-03-09T03:56:12.616Z,8.12
2017-03-09T03:57:21.689Z,8.07
2017-03-09T03:58:30.668Z,8.11
2017-03-09T03:59:39.750Z,8.08
2017-03-09T04:00:48.732Z,8.08
2017-03-09T04:01:57.735Z,8.04
2017-03-09T04:03:06.805Z,8.15
2017-03-09T04:04:15.786Z,8.15
2017-03-09T04:05:24.762Z,8.25
2017-03-09T04:06:33.747Z,8.19
2017-03-09T04:07:43.311Z,8.22
2017-03-09T04:08:52.783Z,8.19
2017-03-09T04:10:01.780Z,8.19
2017-03-09T04:11:11.180Z,8.23
2017-03-09T04:12:20.190Z,8.19
2017-03-09T04:13:29.916Z,8.18
2017-03-09T04:14:38.987Z,8.19
2017-03-09T04:15:47.984Z,8.25
2017-03-09T04:16:56.960Z,8.28
2017-03-09T04:18:05.941Z,8.3
2017-03-09T04:19:14.976Z,8.34
2017-03-09T04:20:23.967Z,8.34
2017-03-09T04:21:32.943Z,8.36
2017-03-09T04:22:41.929Z,8.37
2017-03-09T04:23:51.031Z,8.28
2017-03-09T04:25:00.111Z,8.37
2017-03-09T04:26:09.094Z,8.26
2017-03-09T04:27:18.077Z,8.38
2017-03-09T04:28:27.761Z,8.4
2017-03-09T04:29:37.565Z,8.33
2017-03-09T04:30:46.605Z,8.33
2017-03-09T04:31:55.618Z,8.33
2017-03-09T04:33:04.681Z,8.28
2017-03-09T04:34:13.986Z,8.26
2017-03-09T04:35:22.990Z,8.29
2017-03-09T04:36:32.071Z,8.26
2017-03-09T04:37:41.063Z,8.29
2017-03-09T04:38:50.054Z,8.26
2017-03-09T04:39:59.436Z,8.18
2017-03-09T04:41:08.840Z,8.05
2017-03-09T04:42:17.818Z,8.2
2017-03-09T04:43:27.203Z,8.12
2017-03-09T04:44:36.271Z,7.95
2017-03-09T04:45:45.301Z,7.98
2017-03-09T04:46:54.288Z,7.95
2017-03-09T04:48:03.985Z,7.82
2017-03-09T04:49:12.968Z,7.75
2017-03-09T04:50:21.962Z,7.71
2017-03-09T04:51:30.934Z,7.63
2017-03-09T04:52:39.912Z,7.72
2017-03-09T04:53:49.304Z,7.67
2017-03-09T04:54:58.292Z,7.74
2017-03-09T04:56:08.178Z,7.71
2017-03-09T04:57:17.156Z,7.72
2017-03-09T04:58:26.255Z,7.68
2017-03-09T04:59:35.226Z,7.63
2017-03-09T05:00:44.191Z,7.6
2017-03-09T05:01:53.261Z,7.6
2017-03-09T05:03:02.236Z,7.55
2017-03-09T05:04:11.242Z,7.53
2017-03-09T05:05:20.310Z,7.53
2017-03-09T05:06:30.031Z,7.67
2017-03-09T05:07:39.027Z,7.64
2017-03-09T05:08:47.999Z,7.6
2017-03-09T05:09:57.003Z,7.72
2017-03-09T05:11:06.003Z,7.71
2017-03-09T05:12:14.988Z,7.74
2017-03-09T05:13:23.970Z,7.8
2017-03-09T05:14:32.960Z,7.8
2017-03-09T05:15:41.935Z,7.83
2017-03-09T05:16:50.910Z,7.9
2017-03-09T05:17:59.899Z,7.83
2017-03-09T05:19:09.311Z,7.75
2017-03-09T05:20:18.387Z,7.93
2017-03-09T05:21:27.372Z,7.93
2017-03-09T05:22:36.477Z,7.92
2017-03-09T05:23:45.478Z,7.98
2017-03-09T05:24:54.468Z,7.85
2017-03-09T05:26:03.460Z,7.97
2017-03-09T05:27:12.442Z,7.93
2017-03-09T05:28:21.903Z,7.9
2017-03-09T05:29:30.965Z,7.97
2017-03-09T05:30:39.952Z,8.02
2017-03-09T05:31:48.937Z,8.02
2017-03-09T05:32:57.965Z,7.93
2017-03-09T05:34:06.936Z,7.92
2017-03-09T05:35:16.014Z,8.07
2017-03-09T05:36:25.019Z,8.08
2017-03-09T05:37:34.006Z,8.01
2017-03-09T05:38:42.978Z,7.92
2017-03-09T05:39:51.958Z,7.92
2017-03-09T05:41:00.940Z,8.04
2017-03-09T05:42:09.928Z,8.05
2017-03-09T05:43:18.935Z,8.02
2017-03-09T05:44:27.921Z,8.04
2017-03-09T05:45:37.451Z,8.01
2017-03-09T05:46:46.433Z,8.08
2017-03-09T05:47:55.415Z,8.07
2017-03-09T05:49:04.912Z,8.18
2017-03-09T05:50:13.891Z,8.02
2017-03-09T05:51:22.866Z,8.15
2017-03-09T05:52:31.852Z,8.05
2017-03-09T05:53:40.836Z,8.1
2017-03-09T05:54:49.826Z,8.05
2017-03-09T05:55:58.980Z,8.04
2017-03-09T05:57:07.968Z,8.11
2017-03-09T05:58:16.975Z,8.01
2017-03-09T05:59:25.971Z,8.07
2017-03-09T06:00:34.965Z,8.02
2017-03-09T06:01:43.943Z,8.05
2017-03-09T06:02:52.940Z,8.05
2017-03-09T06:04:02.320Z,8.08
2017-03-09T06:05:11.711Z,8.05
2017-03-09T06:06:20.699Z,8.07
2017-03-09T06:07:29.671Z,8.08
2017-03-09T06:08:38.649Z,8.07
2017-03-09T06:09:47.617Z,8.07
2017-03-09T06:10:56.604Z,8.01
2017-03-09T06:12:05.772Z,8.04
2017-03-09T06:13:14.751Z,8.04
2017-03-09T06:14:23.773Z,8.07
2017-03-09T06:15:32.760Z,8.1
2017-03-09T06:16:41.771Z,8.2
2017-03-09T06:17:50.755Z,8.16
2017-03-09T06:18:59.734Z,8.19
2017-03-09T06:20:08.860Z,8.1
2017-03-09T06:21:17.848Z,8.08
2017-03-09T06:22:27.289Z,8.12
2017-03-09T06:23:36.265Z,8.18
2017-03-09T06:24:45.243Z,8.19
2017-03-09T06:25:54.301Z,8.2
2017-03-09T06:27:03.273Z,8.26
2017-03-09T06:28:12.275Z,8.22
2017-03-09T06:29:21.264Z,8.25
2017-03-09T06:30:30.257Z,8.25
2017-03-09T06:31:39.263Z,8.3
2017-03-09T06:32:48.298Z,8.22
2017-03-09T06:33:57.356Z,8.3
2017-03-09T06:35:06.752Z,8.33
2017-03-09T06:36:16.160Z,8.26
2017-03-09T06:37:25.195Z,8.15
2017-03-09T06:38:34.191Z,8.28
2017-03-09T06:39:43.166Z,8.22
2017-03-09T06:40:52.149Z,8.19
2017-03-09T06:42:01.148Z,8.19
2017-03-09T06:43:10.131Z,8.15
2017-03-09T06:44:19.222Z,8.15
2017-03-09T06:45:28.199Z,8.19
2017-03-09T06:46:37.194Z,8.11
2017-03-09T06:47:46.179Z,8.2
2017-03-09T06:48:55.160Z,8.18
2017-03-09T06:50:04.173Z,8.11
2017-03-09T06:51:14.131Z,8.11
2017-03-09T06:52:23.106Z,8.15
2017-03-09T06:53:32.103Z,8.18
2017-03-09T06:54:41.126Z,8.18
2017-03-09T06:55:50.100Z,8.18
2017-03-09T06:56:59.173Z,8.19
2017-03-09T06:58:08.245Z,8.12
2017-03-09T06:59:17.223Z,8.04
2017-03-09T07:00:26.289Z,8.08
2017-03-09T07:01:35.275Z,8.02
2017-03-09T07:02:44.673Z,7.97
2017-03-09T07:03:53.663Z,8.11
2017-03-09T07:05:02.648Z,8.07
2017-03-09T07:06:11.723Z,8.19
2017-03-09T07:07:20.709Z,8.07
2017-03-09T07:08:29.780Z,8.15
2017-03-09T07:09:38.877Z,8.22
2017-03-09T07:10:47.859Z,8.29
2017-03-09T07:11:56.881Z,8.3
2017-03-09T07:13:05.870Z,8.26
2017-03-09T07:14:14.846Z,8.41
2017-03-09T07:15:23.830Z,8.38
2017-03-09T07:16:32.932Z,8.38
2017-03-09T07:17:41.925Z,8.47
2017-03-09T07:18:50.923Z,8.43
2017-03-09T07:19:59.924Z,8.37
2017-03-09T07:21:08.932Z,8.45
2017-03-09T07:22:17.913Z,8.44
2017-03-09T07:23:26.880Z,8.44
2017-03-09T07:24:35.952Z,8.53
2017-03-09T07:25:44.937Z,8.5
2017-03-09T07:26:54.004Z,8.52
2017-03-09T07:28:03.001Z,8.5
2017-03-09T07:29:12.028Z,8.47
2017-03-09T07:30:21.020Z,8.5
2017-03-09T07:31:30.001Z,8.48
2017-03-09T07:32:39.080Z,8.55
2017-03-09T07:33:48.164Z,8.47
2017-03-09T07:34:57.145Z,8.48
2017-03-09T07:36:06.527Z,8.5
2017-03-09T07:37:15.534Z,8.61
2017-03-09T07:38:24.627Z,8.61
2017-03-09T07:39:33.700Z,8.61
2017-03-09T07:40:42.683Z,8.63
2017-03-09T07:41:51.662Z,8.52
2017-03-09T07:43:00.634Z,8.7
2017-03-09T07:44:09.619Z,8.71
2017-03-09T07:45:18.617Z,8.71
2017-03-09T07:46:27.647Z,8.77
2017-03-09T07:47:36.624Z,8.79
2017-03-09T07:48:45.605Z,8.76
2017-03-09T07:49:54.574Z,8.76
2017-03-09T07:51:03.610Z,8.89
2017-03-09T07:52:12.593Z,8.92
2017-03-09T07:53:21.579Z,8.96
2017-03-09T07:54:30.636Z,8.91
2017-03-09T07:55:39.628Z,8.99
2017-03-09T07:56:48.608Z,8.89
2017-03-09T07:57:57.589Z,8.96
2017-03-09T07:59:06.578Z,8.89
2017-03-09T08:00:15.550Z,8.92
2017-03-09T08:01:24.965Z,8.87
2017-03-09T08:02:33.939Z,9.08
2017-03-09T08:03:42.955Z,9.04
2017-03-09T08:04:51.933Z,9.05
2017-03-09T08:06:01.023Z,9.13
2017-03-09T08:07:10.032Z,9.08
2017-03-09T08:08:19.107Z,9.11
2017-03-09T08:09:28.096Z,9.13
2017-03-09T08:10:37.095Z,9.11
2017-03-09T08:11:46.081Z,9.11
2017-03-09T08:12:55.056Z,9.11
2017-03-09T08:14:04.135Z,9.21
2017-03-09T08:15:13.108Z,9.15
2017-03-09T08:16:22.170Z,9.18
2017-03-09T08:17:31.147Z,9.36
2017-03-09T08:18:40.152Z,9.35
2017-03-09T08:19:49.144Z,9.36
2017-03-09T08:20:58.122Z,9.42
2017-03-09T08:22:07.207Z,9.42
2017-03-09T08:23:16.671Z,9.5
2017-03-09T08:24:25.738Z,9.48
2017-03-09T08:25:34.728Z,9.47
2017-03-09T08:26:43.856Z,9.48
2017-03-09T08:27:52.849Z,9.43
2017-03-09T08:29:01.962Z,9.5
2017-03-09T08:30:10.941Z,9.56
2017-03-09T08:31:19.929Z,9.48
2017-03-09T08:32:28.973Z,9.47
2017-03-09T08:33:37.962Z,9.48
2017-03-09T08:34:47.031Z,9.65
2017-03-09T08:35:56.104Z,9.68
2017-03-09T08:37:05.092Z,9.72
2017-03-09T08:39:22.593Z,9.79
2017-03-09T08:41:36.082Z,9.66
2017-03-09T08:43:17.168Z,9.65
2017-03-09T08:44:26.208Z,9.66
2017-03-09T08:45:35.250Z,9.72
2017-03-09T08:46:44.264Z,9.79
2017-03-09T08:47:53.266Z,9.75
2017-03-09T08:49:02.372Z,9.89
2017-03-09T08:50:11.373Z,9.86
2017-03-09T08:51:20.359Z,9.83
2017-03-09T08:52:29.856Z,9.83
2017-03-09T08:53:38.910Z,9.87
2017-03-09T08:54:47.988Z,9.87
2017-03-09T08:55:57.074Z,9.91
2017-03-09T08:57:06.464Z,9.9
2017-03-09T08:58:15.457Z,9.96
2017-03-09T08:59:24.445Z,9.96
2017-03-09T09:00:33.490Z,9.93
2017-03-09T09:01:42.459Z,10.01
2017-03-09T09:02:51.457Z,10.07
2017-03-09T09:04:00.460Z,10.15
2017-03-09T09:05:09.552Z,10.22
2017-03-09T09:06:18.577Z,10.29
2017-03-09T09:07:27.564Z,10.33
2017-03-09T09:08:36.540Z,10.29
2017-03-09T09:09:45.527Z,10.33
2017-03-09T09:10:54.586Z,10.41
2017-03-09T09:12:03.572Z,10.51
2017-03-09T09:13:12.561Z,10.51
2017-03-09T09:14:21.556Z,10.51
2017-03-09T09:15:30.628Z,10.51
2017-03-09T09:16:39.633Z,10.41
2017-03-09T09:17:48.619Z,10.59
2017-03-09T09:18:57.621Z,10.55
2017-03-09T09:20:06.691Z,10.63
2017-03-09T09:21:15.695Z,10.59
2017-03-09T09:22:24.707Z,10.53
2017-03-09T09:23:33.811Z,10.56
2017-03-09T09:24:42.813Z,10.48
2017-03-09T09:25:51.802Z,10.53
2017-03-09T09:27:00.875Z,10.47
2017-03-09T09:28:10.289Z,10.48
2017-03-09T09:29:19.313Z,10.52
2017-03-09T09:30:28.311Z,10.47
2017-03-09T09:31:37.292Z,10.47
2017-03-09T09:32:46.296Z,10.45
2017-03-09T09:33:55.277Z,10.51
2017-03-09T09:35:04.693Z,10.59
2017-03-09T09:36:13.678Z,10.59
2017-03-09T09:37:22.656Z,10.55
2017-03-09T09:38:31.721Z,10.6
2017-03-09T09:39:40.711Z,10.55
2017-03-09T09:40:49.685Z,10.47
2017-03-09T09:41:58.689Z,10.42
2017-03-09T09:43:07.765Z,10.48
2017-03-09T09:44:16.759Z,10.52
2017-03-09T09:45:25.760Z,10.52
2017-03-09T09:46:34.753Z,10.52
2017-03-09T09:47:43.742Z,10.48
2017-03-09T09:48:52.728Z,10.44
2017-03-09T09:50:01.707Z,10.56
2017-03-09T09:51:10.685Z,10.61
2017-03-09T09:52:19.659Z,10.68
2017-03-09T09:53:28.675Z,10.73
2017-03-09T09:54:37.686Z,10.84
2017-03-09T09:55:46.679Z,10.88
2017-03-09T09:56:55.683Z,10.85
2017-03-09T09:58:04.679Z,10.86
2017-03-09T09:59:13.654Z,10.92
2017-03-09T10:00:22.641Z,11.02
2017-03-09T10:01:31.713Z,11.04
2017-03-09T10:02:40.715Z,11.15
2017-03-09T10:03:49.745Z,10.99
2017-03-09T10:04:58.728Z,11.03
2017-03-09T10:06:07.729Z,11.07
2017-03-09T10:07:16.719Z,11.04
2017-03-09T10:08:25.694Z,11.1
2017-03-09T10:09:34.728Z,11.06
2017-03-09T10:10:43.726Z,11.06
2017-03-09T10:11:52.708Z,10.97
2017-03-09T10:13:01.720Z,11.06
2017-03-09T10:14:10.790Z,11
2017-03-09T10:15:20.228Z,10.99
2017-03-09T10:16:29.247Z,10.94
2017-03-09T10:17:38.320Z,10.85
2017-03-09T10:18:47.303Z,11.03
2017-03-09T10:19:56.290Z,10.96
2017-03-09T10:21:05.339Z,11.1
2017-03-09T10:22:14.331Z,11.09
2017-03-09T10:23:23.337Z,11.06
2017-03-09T10:24:32.335Z,11.14
2017-03-09T10:25:41.313Z,11.04
2017-03-09T10:26:50.303Z,11.09
2017-03-09T10:27:59.308Z,11.11
2017-03-09T10:29:08.294Z,11.1
2017-03-09T10:30:17.370Z,11.07
2017-03-09T10:31:26.471Z,11.11
2017-03-09T10:32:35.588Z,11.15
2017-03-09T10:33:44.576Z,11.18
2017-03-09T10:34:53.593Z,11.17
2017-03-09T10:36:02.573Z,11.19
2017-03-09T10:37:11.563Z,11.14
2017-03-09T10:38:20.602Z,11.02
2017-03-09T10:39:29.593Z,11.04
2017-03-09T10:40:38.591Z,10.99
2017-03-09T10:41:47.591Z,10.92
2017-03-09T10:42:56.580Z,10.94
2017-03-09T10:44:05.570Z,10.89
2017-03-09T10:45:14.559Z,10.96
2017-03-09T10:46:23.643Z,10.99
2017-03-09T10:47:32.746Z,10.97
2017-03-09T10:48:41.730Z,11.04
2017-03-09T10:49:50.709Z,11.17
2017-03-09T10:50:59.705Z,11.22
2017-03-09T10:52:08.696Z,11.21
2017-03-09T10:53:17.687Z,11.27
2017-03-09T10:54:26.771Z,11.35
2017-03-09T10:55:35.756Z,11.4
2017-03-09T10:56:44.740Z,11.43
2017-03-09T10:57:53.721Z,11.44
2017-03-09T10:59:02.727Z,11.51
2017-03-09T11:00:12.121Z,11.47
2017-03-09T11:01:21.103Z,11.49
2017-03-09T11:02:30.098Z,11.49
2017-03-09T11:03:39.093Z,11.49
2017-03-09T11:04:48.097Z,11.36
2017-03-09T11:05:57.396Z,11.36
2017-03-09T11:07:06.382Z,11.43
2017-03-09T11:08:15.386Z,11.42
2017-03-09T11:09:24.452Z,11.46
2017-03-09T11:10:33.524Z,11.58
2017-03-09T11:11:42.499Z,11.55
2017-03-09T11:12:51.537Z,11.52
2017-03-09T11:14:00.922Z,11.35
2017-03-09T11:15:09.905Z,11.37
2017-03-09T11:16:19.308Z,11.25
2017-03-09T11:17:28.297Z,11.21
2017-03-09T11:18:37.314Z,11.15
2017-03-09T11:19:46.333Z,11.19
2017-03-09T11:20:55.411Z,11.17
2017-03-09T11:22:04.505Z,11.22
2017-03-09T11:23:13.492Z,11.11
2017-03-09T11:24:22.534Z,11.19
2017-03-09T11:25:31.512Z,11.24
2017-03-09T11:26:40.493Z,11.4
2017-03-09T11:27:49.478Z,11.43
2017-03-09T11:28:58.456Z,11.61
2017-03-09T11:30:07.926Z,11.61
2017-03-09T11:31:16.959Z,11.6
2017-03-09T11:32:26.037Z,11.58
2017-03-09T11:33:35.022Z,11.57
2017-03-09T11:34:44.003Z,11.57
2017-03-09T11:35:52.995Z,11.47
2017-03-09T11:37:01.987Z,11.58
2017-03-09T11:38:11.004Z,11.55
2017-03-09T11:39:19.980Z,11.57
2017-03-09T11:40:28.963Z,11.6
2017-03-09T11:41:37.989Z,11.65
2017-03-09T11:42:46.984Z,11.65
2017-03-09T11:43:55.985Z,11.64
2017-03-09T11:45:05.003Z,11.7
2017-03-09T11:46:13.979Z,11.85
2017-03-09T11:47:22.977Z,11.86
2017-03-09T11:48:31.969Z,11.96
2017-03-09T11:49:40.950Z,11.99
2017-03-09T11:50:50.365Z,12.1
2017-03-09T11:51:59.353Z,12.04
2017-03-09T11:53:08.347Z,12.16
2017-03-09T11:54:17.750Z,12.1
2017-03-09T11:55:26.741Z,12.01
2017-03-09T11:56:35.722Z,11.99
2017-03-09T11:57:44.713Z,12.05
2017-03-09T11:58:53.874Z,12.02
2017-03-09T12:00:02.869Z,11.99
2017-03-09T12:01:11.938Z,11.96
2017-03-09T12:02:20.921Z,11.88
2017-03-09T12:03:30.425Z,11.91
2017-03-09T12:04:39.454Z,11.88
2017-03-09T12:05:48.439Z,11.88
2017-03-09T12:06:57.428Z,11.96
2017-03-09T12:08:06.422Z,12.01
2017-03-09T12:09:15.509Z,11.95
2017-03-09T12:10:24.518Z,11.98
2017-03-09T12:11:33.520Z,12.01
2017-03-09T12:12:42.507Z,12.07
2017-03-09T12:13:51.490Z,12.1
2017-03-09T12:15:00.497Z,12.12
2017-03-09T12:16:09.543Z,12.2
2017-03-09T12:17:18.559Z,12.29
2017-03-09T12:18:27.543Z,12.39
2017-03-09T12:19:36.522Z,12.47
2017-03-09T12:20:45.502Z,12.6
2017-03-09T12:21:54.485Z,12.65
2017-03-09T12:23:03.483Z,12.68
2017-03-09T12:24:12.464Z,12.79
2017-03-09T12:25:21.540Z,12.72
2017-03-09T12:26:30.545Z,12.71
2017-03-09T12:27:39.541Z,12.85
2017-03-09T12:28:48.535Z,12.79
2017-03-09T12:29:57.524Z,12.9
2017-03-09T12:31:06.534Z,12.97
2017-03-09T12:32:15.610Z,12.93
2017-03-09T12:33:24.651Z,13.03
2017-03-09T12:34:33.657Z,13.1
2017-03-09T12:35:42.649Z,13.11
2017-03-09T12:36:51.642Z,13.11
2017-03-09T12:38:00.629Z,13.23
2017-03-09T12:39:09.838Z,13.25
2017-03-09T12:40:18.937Z,13.3
2017-03-09T12:41:27.918Z,13.29
2017-03-09T12:42:36.921Z,13.3
2017-03-09T12:43:45.903Z,13.26
2017-03-09T12:44:54.888Z,13.25
2017-03-09T12:46:04.291Z,13.23
2017-03-09T12:47:13.379Z,13.36
2017-03-09T12:48:22.366Z,13.28
2017-03-09T12:49:31.370Z,13.29
2017-03-09T12:50:40.351Z,13.26
2017-03-09T12:51:49.749Z,13.23
2017-03-09T12:52:58.740Z,13.23
2017-03-09T12:54:07.952Z,13.19
2017-03-09T12:55:16.961Z,13.2
2017-03-09T12:56:26.023Z,13.2
2017-03-09T12:57:35.219Z,13.17
2017-03-09T12:58:44.221Z,13.17
2017-03-09T12:59:53.633Z,13.17
2017-03-09T13:01:02.623Z,13.17
2017-03-09T13:02:11.692Z,13.19
2017-03-09T13:03:20.714Z,13.22
2017-03-09T13:04:29.814Z,13.25
2017-03-09T13:05:38.828Z,13.17
2017-03-09T13:06:47.842Z,13.22
2017-03-09T13:07:57.278Z,13.19
2017-03-09T13:09:06.318Z,13.22
2017-03-09T13:10:15.305Z,13.19
2017-03-09T13:11:24.327Z,13.22
2017-03-09T13:12:33.324Z,13.26
2017-03-09T13:13:42.367Z,13.2
2017-03-09T13:14:51.352Z,13.23
2017-03-09T13:16:00.330Z,13.17
2017-03-09T13:17:09.415Z,13.3
2017-03-09T13:18:18.392Z,13.26
2017-03-09T13:19:27.851Z,13.25
2017-03-09T13:20:36.847Z,13.3
2017-03-09T13:21:45.933Z,13.2
2017-03-09T13:22:54.926Z,13.17
2017-03-09T13:24:04.383Z,13.22
2017-03-09T13:25:13.444Z,13.19
2017-03-09T13:26:22.521Z,13.28
2017-03-09T13:27:31.947Z,13.3
2017-03-09T13:28:41.187Z,13.42
2017-03-09T13:29:50.178Z,13.36
2017-03-09T13:30:59.215Z,13.29
2017-03-09T13:32:09.246Z,13.26
2017-03-09T13:33:18.379Z,13.25
2017-03-09T13:34:27.407Z,13.25
2017-03-09T13:35:36.553Z,13.19
2017-03-09T13:36:45.573Z,13.23
2017-03-09T13:37:54.699Z,13.22
2017-03-09T13:39:05.511Z,13.25
2017-03-09T13:40:14.497Z,13.19
2017-03-09T13:41:23.587Z,13.2
2017-03-09T13:42:32.776Z,13.22
2017-03-09T13:43:41.788Z,13.25
2017-03-09T13:44:50.769Z,13.25
2017-03-09T13:45:59.861Z,13.26
2017-03-09T13:47:08.861Z,13.26
2017-03-09T13:48:17.919Z,13.39
2017-03-09T13:49:26.954Z,13.41
2017-03-09T13:50:36.113Z,13.38
2017-03-09T13:51:45.596Z,13.45
2017-03-09T13:52:54.593Z,13.42
2017-03-09T13:54:03.637Z,13.46
2017-03-09T13:55:12.632Z,13.46
2017-03-09T13:56:21.626Z,13.42
2017-03-09T13:57:30.657Z,13.48
2017-03-09T13:58:39.726Z,13.38
2017-03-09T13:59:50.521Z,13.45
2017-03-09T14:01:01.038Z,13.45
2017-03-09T14:02:17.959Z,13.44
2017-03-09T14:03:43.249Z,13.42
2017-03-09T14:05:04.176Z,13.49
2017-03-09T14:06:14.255Z,13.52
2017-03-09T14:07:23.349Z,13.49
2017-03-09T14:08:32.528Z,13.39
2017-03-09T14:09:41.522Z,13.44
2017-03-09T14:10:50.616Z,13.44
2017-03-09T14:11:59.598Z,13.38
2017-03-09T14:13:08.614Z,13.25
2017-03-09T14:14:17.699Z,13.22
2017-03-09T14:15:26.692Z,13.2
2017-03-09T14:16:35.823Z,13.17
2017-03-09T14:17:44.896Z,13.17
2017-03-09T14:18:53.977Z,13.07
2017-03-09T14:20:02.963Z,13.04
2017-03-09T14:21:12.045Z,12.96
2017-03-09T14:22:21.041Z,12.92
2017-03-09T14:23:30.037Z,13.01
2017-03-09T14:24:39.116Z,12.93
2017-03-09T14:25:48.100Z,12.96
2017-03-09T14:26:57.087Z,12.97
2017-03-09T14:28:06.119Z,12.96
2017-03-09T14:29:15.107Z,12.92
2017-03-09T14:30:24.216Z,12.9
2017-03-09T14:31:33.208Z,12.9
2017-03-09T14:32:42.209Z,12.82
2017-03-09T14:33:51.198Z,12.86
2017-03-09T14:35:00.183Z,12.71
2017-03-09T14:36:09.204Z,12.75
2017-03-09T14:37:18.196Z,12.78
2017-03-09T14:38:27.602Z,12.74
2017-03-09T14:39:36.753Z,12.67
2017-03-09T14:40:45.747Z,12.57
2017-03-09T14:41:54.729Z,12.52
2017-03-09T14:43:03.734Z,12.53
2017-03-09T14:44:13.329Z,12.41
2017-03-09T14:45:22.440Z,12.41
2017-03-09T14:46:31.509Z,12.42
2017-03-09T14:47:40.491Z,12.39
2017-03-09T14:48:49.585Z,12.38
2017-03-09T14:49:58.688Z,12.42
2017-03-09T14:51:07.667Z,12.41
2017-03-09T14:52:17.057Z,12.42
2017-03-09T14:53:26.067Z,12.46
2017-03-09T14:54:35.061Z,12.47
2017-03-09T14:55:44.060Z,12.56
2017-03-09T14:56:53.051Z,12.6
2017-03-09T14:58:02.152Z,12.7
2017-03-09T14:59:11.133Z,12.68
2017-03-09T15:00:20.232Z,12.78
2017-03-09T15:01:29.246Z,12.85
2017-03-09T15:02:38.279Z,12.83
2017-03-09T15:03:47.276Z,12.85
2017-03-09T15:04:56.264Z,12.9
2017-03-09T15:06:05.249Z,12.92
2017-03-09T15:07:14.238Z,12.86
2017-03-09T15:08:23.294Z,12.9
2017-03-09T15:09:32.385Z,12.87
2017-03-09T15:10:41.785Z,12.89
2017-03-09T15:11:50.785Z,12.87
2017-03-09T15:13:00.190Z,12.87
2017-03-09T15:14:09.208Z,12.89